Terminal Aerodrome Forecast
Issued by NWS Pocatello, ID

Current Version | Previous Version | Text Only | Print | Product List | Glossary On
Versions: 1 2 3 4 5 6 7 8 9 10 11 12 13 14 15 16 17 18 19 20 21 22 23 24 25 26 27 28 29 30
445
FTUS45 KPIH 042332
TAFPIH
TAF
KPIH 042332Z 0500/0524 20015G25KT P6SM VCSH OVC025
     FM050300 23025G35KT 2SM -SN BLSN SCT006 OVC015
     FM050800 24024G34KT P6SM VCSH SCT020 BKN090
     FM051400 25010KT P6SM BKN120=

USA.gov is the U.S. government's official web portal to all federal, state and local government web resources and services.